Time;durP1;ratioP1;P1;durP2;ratioP2;P2;SDS_P1;SDS_P2;PMS_P1;PMS_P2;Temp;Humidity;BMP_temperature;BMP_pressure;BME280_temperature;BME280_humidity;BME280_pressure;Samples;Min_cycle;Max_cycle;Signal;HPM_P1;HPM_P2
2022/10/11 00:00:33;;;;;;;12.13;4.97;;;;;;;;;;20589455;28;20061;-62
2022/10/11 00:10:35;;;;;;;9.52;4.78;;;;;;;;;;20606451;28;20133;-62
2022/10/11 00:20:37;;;;;;;10.55;4.72;;;;;;;;;;20603245;28;20113;-62
2022/10/11 00:30:42;;;;;;;10.55;4.00;;;;;;;;;;20588504;28;20451;-62
2022/10/11 00:40:44;;;;;;;6.90;4.60;;;;;;;;;;20586738;28;20062;-63
2022/10/11 00:50:46;;;;;;;9.95;4.93;;;;;;;;;;20586577;28;20085;-61
2022/10/11 01:00:49;;;;;;;9.13;4.75;;;;;;;;;;20586179;28;20062;-65
2022/10/11 01:10:51;;;;;;;10.88;4.45;;;;;;;;;;20586229;28;20047;-69
2022/10/11 01:20:58;;;;;;;8.35;4.10;;;;;;;;;;20586689;28;20058;-63
2022/10/11 01:31:08;;;;;;;9.77;3.97;;;;;;;;;;20585693;28;20055;-63
2022/10/11 01:41:17;;;;;;;9.15;4.35;;;;;;;;;;20586621;28;20429;-64
2022/10/11 01:51:22;;;;;;;8.52;3.55;;;;;;;;;;20587798;28;20055;-65
2022/10/11 02:01:33;;;;;;;8.00;3.60;;;;;;;;;;20598812;28;20492;-64
2022/10/11 02:11:37;;;;;;;7.65;3.00;;;;;;;;;;20599345;28;20050;-81
2022/10/11 02:21:42;;;;;;;6.72;2.95;;;;;;;;;;20597098;28;20050;-79
2022/10/11 02:31:45;;;;;;;8.60;3.72;;;;;;;;;;20597537;28;20051;-62
2022/10/11 02:41:49;;;;;;;11.50;5.63;;;;;;;;;;20596250;28;20106;-62
2022/10/11 02:51:55;;;;;;;10.32;4.78;;;;;;;;;;20595474;28;20113;-74
2022/10/11 03:01:56;;;;;;;7.55;4.38;;;;;;;;;;20608736;28;20090;-74
2022/10/11 03:11:59;;;;;;;7.80;3.47;;;;;;;;;;20594391;28;20058;-79
2022/10/11 03:22:02;;;;;;;11.52;3.83;;;;;;;;;;20609032;28;20451;-78
2022/10/11 03:32:05;;;;;;;12.35;4.15;;;;;;;;;;20592482;28;20047;-78
2022/10/11 03:42:09;;;;;;;7.15;3.75;;;;;;;;;;20590751;28;20059;-79
2022/10/11 03:52:13;;;;;;;8.93;4.03;;;;;;;;;;20592167;28;20055;-79
2022/10/11 04:02:15;;;;;;;6.97;2.90;;;;;;;;;;20607157;28;20051;-74
2022/10/11 04:12:19;;;;;;;7.85;3.55;;;;;;;;;;20595622;28;20050;-62
2022/10/11 04:22:21;;;;;;;10.30;3.70;;;;;;;;;;20594244;28;20479;-75
2022/10/11 04:32:25;;;;;;;9.68;3.85;;;;;;;;;;20588343;28;20051;-78
2022/10/11 04:42:27;;;;;;;8.82;3.75;;;;;;;;;;20601585;28;20059;-65
2022/10/11 04:52:30;;;;;;;9.68;3.53;;;;;;;;;;20586537;28;20515;-63
2022/10/11 05:02:32;;;;;;;7.88;3.53;;;;;;;;;;20586454;28;20499;-78
2022/10/11 05:12:34;;;;;;;8.88;3.83;;;;;;;;;;20586040;28;20106;-70
2022/10/11 05:22:36;;;;;;;7.35;2.97;;;;;;;;;;20585732;28;20050;-80
2022/10/11 05:32:39;;;;;;;9.05;3.30;;;;;;;;;;20597421;28;20055;-62
2022/10/11 05:42:41;;;;;;;5.80;2.78;;;;;;;;;;20601044;28;20124;-63
2022/10/11 05:52:43;;;;;;;10.43;2.88;;;;;;;;;;20599841;28;20495;-80
2022/10/11 06:02:46;;;;;;;9.32;3.30;;;;;;;;;;20614100;28;20070;-79
2022/10/11 06:12:48;;;;;;;10.23;2.85;;;;;;;;;;20599733;28;20086;-63
2022/10/11 06:22:50;;;;;;;9.88;3.30;;;;;;;;;;20601241;28;20393;-63
2022/10/11 06:32:52;;;;;;;8.88;4.00;;;;;;;;;;20602660;28;20055;-63
2022/10/11 06:42:54;;;;;;;8.63;3.88;;;;;;;;;;20602247;28;20054;-62
2022/10/11 06:52:56;;;;;;;8.30;3.85;;;;;;;;;;20640748;28;20135;-80
2022/10/11 07:02:59;;;;;;;10.52;3.83;;;;;;;;;;20650675;28;20050;-79
2022/10/11 07:13:01;;;;;;;8.98;3.38;;;;;;;;;;20619040;28;20444;-77
2022/10/11 07:23:03;;;;;;;9.07;4.03;;;;;;;;;;20615883;28;20053;-79
2022/10/11 07:33:06;;;;;;;7.32;3.47;;;;;;;;;;20614558;28;20098;-74
2022/10/11 07:43:08;;;;;;;15.52;4.00;;;;;;;;;;20606027;28;20114;-80
2022/10/11 07:53:10;;;;;;;13.68;4.53;;;;;;;;;;20597606;28;20054;-80
2022/10/11 08:03:12;;;;;;;10.23;3.45;;;;;;;;;;20595592;28;20086;-79
2022/10/11 08:13:14;;;;;;;11.75;4.63;;;;;;;;;;20590535;28;20069;-62
2022/10/11 08:23:17;;;;;;;11.48;4.05;;;;;;;;;;20605336;28;20117;-62
2022/10/11 08:33:20;;;;;;;10.77;4.60;;;;;;;;;;20593657;28;20057;-63
2022/10/11 08:43:41;;;;;;;10.95;4.35;;;;;;;;;;20592787;28;20407;-61
2022/10/11 08:53:43;;;;;;;12.80;4.45;;;;;;;;;;20594889;28;20082;-72
2022/10/11 09:03:47;;;;;;;9.65;3.65;;;;;;;;;;20604943;28;20042;-63
2022/10/11 09:14:07;;;;;;;17.02;4.65;;;;;;;;;;20607759;28;20142;-75
2022/10/11 09:24:24;;;;;;;11.13;4.40;;;;;;;;;;20623956;28;20089;-78
2022/10/11 09:34:31;;;;;;;11.50;3.90;;;;;;;;;;20607245;28;20065;-61
2022/10/11 09:44:34;;;;;;;14.70;4.47;;;;;;;;;;20606756;28;20047;-78
2022/10/11 09:54:41;;;;;;;9.98;4.45;;;;;;;;;;20604627;28;20144;-76
2022/10/11 10:04:53;;;;;;;10.00;4.63;;;;;;;;;;20602387;28;20057;-64
2022/10/11 10:15:05;;;;;;;15.88;5.38;;;;;;;;;;20598643;28;20061;-65
2022/10/11 10:25:19;;;;;;;12.20;5.63;;;;;;;;;;20599742;28;20051;-67
2022/10/11 10:35:26;;;;;;;15.13;6.20;;;;;;;;;;20607474;28;20051;-64
2022/10/11 10:45:39;;;;;;;10.38;4.53;;;;;;;;;;20611758;28;20054;-62
2022/10/11 10:55:42;;;;;;;18.75;6.53;;;;;;;;;;20595293;28;20061;-75
2022/10/11 11:05:44;;;;;;;15.20;6.93;;;;;;;;;;20594368;28;20062;-74
2022/10/11 11:16:16;;;;;;;16.55;6.28;;;;;;;;;;20591947;28;20054;-72
2022/10/11 11:26:30;;;;;;;11.55;5.55;;;;;;;;;;20581541;28;20051;-71
2022/10/11 11:36:38;;;;;;;28.95;6.15;;;;;;;;;;20581390;28;20054;-73
2022/10/11 11:46:43;;;;;;;17.90;7.37;;;;;;;;;;20581612;28;20396;-74
2022/10/11 11:56:45;;;;;;;14.88;6.28;;;;;;;;;;20583940;28;20078;-74
2022/10/11 12:06:59;;;;;;;14.88;5.63;;;;;;;;;;20604657;28;20487;-69
2022/10/11 12:17:05;;;;;;;13.15;5.45;;;;;;;;;;20590694;28;20451;-67
2022/10/11 12:27:28;;;;;;;15.17;5.00;;;;;;;;;;20589550;28;20061;-71
2022/10/11 12:37:30;;;;;;;12.45;5.13;;;;;;;;;;20587347;28;20054;-65
2022/10/11 12:47:48;;;;;;;8.07;3.65;;;;;;;;;;20586925;28;20051;-75
2022/10/11 12:57:50;;;;;;;9.27;4.03;;;;;;;;;;20586773;28;20407;-71
2022/10/11 13:07:53;;;;;;;8.95;3.30;;;;;;;;;;20601221;28;20053;-73
2022/10/11 13:18:00;;;;;;;9.48;4.00;;;;;;;;;;20585811;28;20054;-66
2022/10/11 13:28:02;;;;;;;12.90;3.90;;;;;;;;;;20585546;28;20051;-74
2022/10/11 13:38:07;;;;;;;8.85;4.60;;;;;;;;;;20585872;28;20507;-71
2022/10/11 13:48:14;;;;;;;14.10;4.05;;;;;;;;;;20602746;28;20492;-74
2022/10/11 13:58:20;;;;;;;11.17;3.57;;;;;;;;;;20598922;28;20047;-67
2022/10/11 14:08:29;;;;;;;9.93;3.00;;;;;;;;;;20599174;28;20047;-74
2022/10/11 14:18:49;;;;;;;7.00;2.55;;;;;;;;;;20601550;28;20065;-74
2022/10/11 14:28:55;;;;;;;8.27;1.70;;;;;;;;;;20597280;28;20210;-59
2022/10/11 14:38:57;;;;;;;6.45;2.67;;;;;;;;;;20591033;28;20054;-65
2022/10/11 14:48:59;;;;;;;6.85;2.63;;;;;;;;;;20592494;28;20082;-66
2022/10/11 14:59:01;;;;;;;12.75;3.20;;;;;;;;;;20607182;28;20058;-63
2022/10/11 15:09:03;;;;;;;14.40;3.00;;;;;;;;;;20590395;28;20578;-66
2022/10/11 15:19:06;;;;;;;8.70;3.60;;;;;;;;;;20591484;28;20526;-65
2022/10/11 15:29:12;;;;;;;9.10;2.90;;;;;;;;;;20588667;28;20051;-65
2022/10/11 15:39:25;;;;;;;8.80;2.95;;;;;;;;;;20586995;28;20124;-61
2022/10/11 15:49:27;;;;;;;8.93;2.33;;;;;;;;;;20585850;28;20393;-60
2022/10/11 15:59:29;;;;;;;10.75;2.58;;;;;;;;;;20584701;28;20058;-67
2022/10/11 16:09:31;;;;;;;9.50;2.65;;;;;;;;;;20583755;28;20051;-68
2022/10/11 16:19:33;;;;;;;8.75;2.13;;;;;;;;;;20585037;28;20086;-70
2022/10/11 16:29:36;;;;;;;11.35;2.63;;;;;;;;;;20599728;28;20511;-64
2022/10/11 16:39:38;;;;;;;9.10;2.88;;;;;;;;;;20584550;28;20050;-62
2022/10/11 16:49:41;;;;;;;13.07;2.80;;;;;;;;;;20584072;28;20051;-63
2022/10/11 16:59:44;;;;;;;10.45;3.00;;;;;;;;;;20588904;28;20148;-70
2022/10/11 17:09:47;;;;;;;13.65;4.35;;;;;;;;;;20584460;28;20047;-68
2022/10/11 17:19:49;;;;;;;10.93;3.10;;;;;;;;;;20581054;28;20134;-66
2022/10/11 17:29:52;;;;;;;7.43;2.60;;;;;;;;;;20610552;28;20121;-64
2022/10/11 17:39:54;;;;;;;8.98;2.58;;;;;;;;;;20596958;28;20054;-62
2022/10/11 17:49:56;;;;;;;6.32;3.10;;;;;;;;;;20595738;28;20130;-66
2022/10/11 17:59:58;;;;;;;9.10;2.70;;;;;;;;;;20598296;28;20062;-63
2022/10/11 18:10:00;;;;;;;12.40;2.65;;;;;;;;;;20598201;28;20117;-64
2022/10/11 18:20:03;;;;;;;11.93;3.67;;;;;;;;;;20612275;28;20055;-64
2022/10/11 18:30:06;;;;;;;12.85;3.20;;;;;;;;;;20596886;28;20051;-62
2022/10/11 18:40:08;;;;;;;10.70;3.47;;;;;;;;;;20595274;28;20142;-62
2022/10/11 18:50:10;;;;;;;7.80;2.97;;;;;;;;;;20596137;28;20499;-61
2022/10/11 19:00:12;;;;;;;9.90;4.90;;;;;;;;;;20595610;28;20054;-62
2022/10/11 19:10:14;;;;;;;10.93;3.20;;;;;;;;;;20596102;28;20066;-62
2022/10/11 19:20:17;;;;;;;14.05;3.70;;;;;;;;;;20593538;28;20070;-61
2022/10/11 19:30:23;;;;;;;19.23;3.78;;;;;;;;;;20593967;28;20487;-62
2022/10/11 19:40:25;;;;;;;20.58;5.43;;;;;;;;;;20592414;28;20142;-63
2022/10/11 19:50:27;;;;;;;12.93;4.32;;;;;;;;;;20591039;28;20051;-61
2022/10/11 20:00:29;;;;;;;18.67;9.00;;;;;;;;;;20592201;28;20483;-62
2022/10/11 20:10:32;;;;;;;12.98;4.88;;;;;;;;;;20589544;28;20098;-62
2022/10/11 20:20:34;;;;;;;16.90;5.35;;;;;;;;;;20588428;28;20056;-61
2022/10/11 20:30:41;;;;;;;12.43;4.22;;;;;;;;;;20589351;28;20487;-63
2022/10/11 20:40:43;;;;;;;9.30;3.43;;;;;;;;;;20588108;28;20053;-62
2022/10/11 20:50:46;;;;;;;6.82;2.58;;;;;;;;;;20587668;28;20138;-63
2022/10/11 21:00:48;;;;;;;6.90;2.45;;;;;;;;;;20602639;28;20054;-65
2022/10/11 21:10:51;;;;;;;7.68;2.33;;;;;;;;;;20614134;28;20150;-65
2022/10/11 21:20:53;;;;;;;6.55;2.60;;;;;;;;;;20612998;28;20415;-65
2022/10/11 21:31:02;;;;;;;9.63;2.70;;;;;;;;;;20612031;28;20058;-64
2022/10/11 21:41:15;;;;;;;7.35;2.92;;;;;;;;;;20613103;28;20097;-63
2022/10/11 21:51:17;;;;;;;7.90;3.42;;;;;;;;;;20626478;28;20085;-62
2022/10/11 22:01:19;;;;;;;7.40;2.95;;;;;;;;;;20612634;28;20385;-63
2022/10/11 22:11:22;;;;;;;10.55;3.10;;;;;;;;;;20603610;28;20057;-65
2022/10/11 22:21:24;;;;;;;8.40;3.95;;;;;;;;;;20599007;28;20118;-62
2022/10/11 22:31:28;;;;;;;9.88;4.43;;;;;;;;;;20597343;28;20113;-64
2022/10/11 22:41:30;;;;;;;7.07;3.75;;;;;;;;;;20597212;28;20492;-62
2022/10/11 22:51:32;;;;;;;14.02;3.45;;;;;;;;;;20596213;28;20051;-62
2022/10/11 23:01:34;;;;;;;10.05;2.75;;;;;;;;;;20594572;28;20054;-61
2022/10/11 23:11:36;;;;;;;4.47;2.38;;;;;;;;;;20608648;28;20051;-62
2022/10/11 23:21:38;;;;;;;7.78;2.97;;;;;;;;;;20592684;28;20051;-62
2022/10/11 23:31:40;;;;;;;9.70;3.03;;;;;;;;;;20592705;28;20101;-61
2022/10/11 23:41:43;;;;;;;5.88;2.95;;;;;;;;;;20591166;28;20066;-62
2022/10/11 23:51:45;;;;;;;7.53;2.55;;;;;;;;;;20591200;28;20086;-62
